ADDS TAF Board (Experimental) INFO Settings

IDs: Format: Expanded Condensed

KBOS - Boston/Logan Intl, MA, US

Issued at 2324 UTC 28 Feb 2015
Updated at: 0254 UTC 01 Mar 2015
Time0154Z 01/03Z 01/04Z 01/05Z 01/06Z 01/07Z 01/08Z 01/09Z 01/10Z 01/11Z 01/12Z 01/13Z 01/14Z 01/15Z
Type OBS PRVL PRVL PRVL PRVL PRVL PRVL PRVL PRVL PRVL PRVL PRVL PRVL PRVL
VIS 10 >6 >6 >6 >6 >6 >6 >6 >6 >6 >6 >6 >6 >6
CIG -- -- -- -- -- -- -- -- -- -- -- -- -- 100
Cover CLR SKC SKC SKC SKC SKC SKC SKC SKC SKC SKC SKC SKC BKN
FltCat VFR VFR VFR VFR VFR VFR VFR VFR VFR VFR VFR VFR VFR VFR
WX -- -- -- -- -- -- -- -- -- -- -- -- -- --
WDir 250 240 240 240 240 240 240 240 240 240 240 240 240 220
WSpd 7 5 5 5 5 5 5 5 5 5 5 5 5 5
WGst -- -- -- -- -- -- -- -- -- -- -- -- -- --
R04/22
XWnd 5 3 3 3 3 3 3 3 3 3 3 3 3 2
HWnd -4 -4 -4 -4 -4 -4 -4 -4 -4 -4 -4 -4 -4 -5
R09/27
XWnd -1 -1 -1 -1 -1 -1 -1 -1 -1 -1 -1 -1 -1 -3
HWnd -7 -5 -5 -5 -5 -5 -5 -5 -5 -5 -5 -5 -5 -4
R14/32
XWnd -6 -5 -5 -5 -5 -5 -5 -5 -5 -5 -5 -5 -5 -5
HWnd -4 -2 -2 -2 -2 -2 -2 -2 -2 -2 -2 -2 -2 -0
R15/33
XWnd -6 -5 -5 -5 -5 -5 -5 -5 -5 -5 -5 -5 -5 -5
HWnd -3 -1 -1 -1 -1 -1 -1 -1 -1 -1 -1 -1 -1 0

NOTE: TEMPO conditions in [brackets]. Keep in mind TEMPO conditions might be better (lower impact) than prevailing conditions.

Raw TAF
KBOS 282324Z 0100/0206 24005KT P6SM SKC
  FM011500 22005KT P6SM BKN100
  FM012000 20009KT P6SM OVC050
  FM012200 20009KT 3SM -SN OVC050
  FM020100 20008KT 1/2SM SN OVC008


Raw METAR
KBOS 010154Z 25007KT 10SM CLR M03/M16 A3071 RMK AO2 SLP397 T10281161
KBOS 010054Z 23007KT 10SM CLR M03/M16 A3070 RMK AO2 SLP396 T10331156
KBOS 282354Z 23007KT 10SM CLR M03/M16 A3070 RMK AO2 SLP394 T10281161 11006 21033 53006

METAR Board
Radar Display
Forecast Discussion

TAF Board Legend

Potential Impact
Threat None Slight Moderate High
Visibility (sm) ≥5.1 5.1>X≥3 3>X≥1 <1
Ceiling (100 ft) ≥30.1 30.1>X≥10 10>X≥5 <5
Wind Speed (kt) <10 10≤X<20 20≤X<30 ≥30
Wind Gust (kt) <15 15≤X<25 25≤X<35 ≥35
Weather No Wx Reported VCTS,-TS,-FZRA,SN TS,FZRA +TS,+FZRA,+SN